Time;durP1;ratioP1;P1;durP2;ratioP2;P2;SDS_P1;SDS_P2;PMS_P1;PMS_P2;Temp;Humidity;BMP_temperature;BMP_pressure;BME280_temperature;BME280_humidity;BME280_pressure;Samples;Min_cycle;Max_cycle;Signal;HPM_P1;HPM_P2
2022/07/15 00:01:50;;;;;;;2.90;1.75;;;;;;;;;;4996097;28;20018;-42
2022/07/15 00:04:16;;;;;;;2.78;1.63;;;;;;;;;;4995811;28;20391;-44
2022/07/15 00:06:41;;;;;;;1.92;1.65;;;;;;;;;;4995764;28;20026;-44
2022/07/15 00:09:07;;;;;;;2.00;1.70;;;;;;;;;;4995754;28;20038;-45
2022/07/15 00:11:33;;;;;;;4.07;1.80;;;;;;;;;;4995909;28;20352;-45
2022/07/15 00:13:58;;;;;;;3.08;1.73;;;;;;;;;;4995584;28;20034;-44
2022/07/15 00:16:24;;;;;;;5.50;1.95;;;;;;;;;;4995742;28;20085;-44
2022/07/15 00:18:49;;;;;;;3.20;1.60;;;;;;;;;;4995809;28;20034;-45
2022/07/15 00:21:15;;;;;;;3.42;1.80;;;;;;;;;;4995486;28;20085;-45
2022/07/15 00:23:40;;;;;;;2.90;1.92;;;;;;;;;;4995693;28;20485;-44
2022/07/15 00:26:06;;;;;;;2.00;1.80;;;;;;;;;;4995380;28;20093;-44
2022/07/15 00:28:31;;;;;;;1.70;1.60;;;;;;;;;;4995381;28;20046;-43
2022/07/15 00:30:57;;;;;;;3.85;1.50;;;;;;;;;;4978103;28;20474;-45
2022/07/15 00:33:23;;;;;;;3.83;1.90;;;;;;;;;;4995241;28;20053;-45
2022/07/15 00:35:49;;;;;;;1.80;1.70;;;;;;;;;;4995167;28;20038;-44
2022/07/15 00:38:15;;;;;;;9.90;2.15;;;;;;;;;;4995135;28;20031;-48
2022/07/15 00:40:46;;;;;;;6.70;1.80;;;;;;;;;;4995640;28;20033;-44
2022/07/15 00:43:12;;;;;;;3.33;1.90;;;;;;;;;;4995344;28;20037;-41
2022/07/15 00:45:38;;;;;;;5.97;1.77;;;;;;;;;;4994998;28;20034;-44
2022/07/15 00:48:04;;;;;;;3.53;1.80;;;;;;;;;;4995249;28;20427;-42
2022/07/15 00:50:30;;;;;;;2.00;1.80;;;;;;;;;;4995225;28;20088;-43
2022/07/15 00:53:09;;;;;;;2.03;1.67;;;;;;;;;;4995123;28;20030;-42
2022/07/15 00:55:42;;;;;;;2.28;2.08;;;;;;;;;;4994814;28;20026;-43
2022/07/15 00:58:10;;;;;;;2.67;1.73;;;;;;;;;;4994596;28;20576;-42
2022/07/15 01:00:36;;;;;;;3.05;1.83;;;;;;;;;;4994808;28;20026;-43
2022/07/15 01:03:02;;;;;;;2.70;1.60;;;;;;;;;;4994742;28;20034;-42
2022/07/15 01:05:28;;;;;;;2.88;1.80;;;;;;;;;;4994699;28;20018;-42
2022/07/15 01:07:54;;;;;;;1.65;1.55;;;;;;;;;;4994860;28;20034;-43
2022/07/15 01:10:23;;;;;;;3.55;1.60;;;;;;;;;;4994595;28;20431;-43
2022/07/15 01:12:50;;;;;;;1.92;1.73;;;;;;;;;;4994488;28;20030;-42
2022/07/15 01:15:16;;;;;;;4.93;1.75;;;;;;;;;;4994790;28;20570;-45
2022/07/15 01:17:44;;;;;;;1.85;1.50;;;;;;;;;;4994700;28;20125;-45
2022/07/15 01:20:10;;;;;;;1.50;1.40;;;;;;;;;;4994659;28;20023;-44
2022/07/15 01:22:36;;;;;;;3.65;1.75;;;;;;;;;;4994313;28;20034;-47
2022/07/15 01:25:01;;;;;;;3.20;1.70;;;;;;;;;;4994610;28;20030;-45
2022/07/15 01:27:27;;;;;;;9.02;1.60;;;;;;;;;;4994549;28;20439;-44
2022/07/15 01:29:53;;;;;;;5.07;1.77;;;;;;;;;;4994418;28;20036;-44
2022/07/15 01:32:18;;;;;;;3.05;1.80;;;;;;;;;;4994429;28;20037;-44
2022/07/15 01:34:45;;;;;;;4.03;1.65;;;;;;;;;;4994162;28;20022;-44
2022/07/15 01:37:11;;;;;;;1.73;1.55;;;;;;;;;;4994178;28;20026;-43
2022/07/15 01:39:36;;;;;;;2.22;1.60;;;;;;;;;;4994374;28;20374;-43
2022/07/15 01:42:02;;;;;;;3.85;1.60;;;;;;;;;;4994011;28;20023;-44
2022/07/15 01:44:27;;;;;;;2.55;1.67;;;;;;;;;;4993967;28;20352;-44
2022/07/15 01:46:52;;;;;;;2.33;1.52;;;;;;;;;;4993959;28;20054;-46
2022/07/15 01:49:29;;;;;;;4.05;1.70;;;;;;;;;;4993777;28;20109;-45
2022/07/15 01:51:56;;;;;;;4.10;1.63;;;;;;;;;;4993838;28;20041;-44
2022/07/15 01:54:23;;;;;;;3.13;1.52;;;;;;;;;;4994082;28;20442;-44
2022/07/15 01:56:50;;;;;;;2.40;1.70;;;;;;;;;;4993292;28;20108;-44
2022/07/15 01:59:15;;;;;;;1.90;1.80;;;;;;;;;;4993733;28;20105;-44
2022/07/15 02:01:42;;;;;;;5.82;1.85;;;;;;;;;;4993876;28;20513;-46
2022/07/15 02:04:08;;;;;;;3.60;1.67;;;;;;;;;;4993898;28;20092;-44
2022/07/15 02:06:34;;;;;;;4.95;1.63;;;;;;;;;;4993848;28;20093;-44
2022/07/15 02:09:00;;;;;;;5.03;1.75;;;;;;;;;;4993524;28;20452;-44
2022/07/15 02:11:25;;;;;;;2.15;1.60;;;;;;;;;;4993537;28;20038;-44
2022/07/15 02:13:53;;;;;;;4.65;1.80;;;;;;;;;;4993449;28;20034;-44
2022/07/15 02:16:19;;;;;;;1.60;1.50;;;;;;;;;;4993276;28;20057;-46
2022/07/15 02:18:44;;;;;;;1.80;1.70;;;;;;;;;;4993396;28;20101;-47
2022/07/15 02:21:10;;;;;;;9.00;1.95;;;;;;;;;;4993310;28;20120;-44
2022/07/15 02:23:35;;;;;;;3.63;1.70;;;;;;;;;;4993316;28;20054;-46
2022/07/15 02:26:01;;;;;;;3.88;1.67;;;;;;;;;;4993505;28;20026;-44
2022/07/15 02:28:26;;;;;;;1.75;1.65;;;;;;;;;;4993220;28;20026;-44
2022/07/15 02:30:52;;;;;;;1.88;1.73;;;;;;;;;;4976096;28;20036;-44
2022/07/15 02:33:17;;;;;;;1.73;1.60;;;;;;;;;;4993259;28;20050;-45
2022/07/15 02:35:43;;;;;;;4.65;1.63;;;;;;;;;;4993061;28;20026;-46
2022/07/15 02:38:08;;;;;;;3.53;1.77;;;;;;;;;;4993366;28;20054;-47
2022/07/15 02:40:34;;;;;;;1.98;1.77;;;;;;;;;;4993149;28;20034;-45
2022/07/15 02:43:02;;;;;;;1.88;1.75;;;;;;;;;;4993049;28;20018;-44
2022/07/15 02:45:30;;;;;;;3.50;1.75;;;;;;;;;;4993310;28;20034;-44
2022/07/15 02:47:55;;;;;;;3.08;1.70;;;;;;;;;;4993021;28;20029;-44
2022/07/15 02:50:21;;;;;;;2.33;1.80;;;;;;;;;;4993028;28;20034;-45
2022/07/15 02:52:47;;;;;;;4.47;1.75;;;;;;;;;;4975573;28;20054;-44
2022/07/15 02:55:14;;;;;;;6.55;1.85;;;;;;;;;;4975907;28;20018;-43
2022/07/15 02:57:40;;;;;;;5.40;1.52;;;;;;;;;;4992566;28;20056;-46
2022/07/15 03:00:09;;;;;;;4.43;1.90;;;;;;;;;;4992887;28;20048;-44
2022/07/15 03:02:35;;;;;;;6.38;2.13;;;;;;;;;;4992871;28;20033;-45
2022/07/15 03:05:01;;;;;;;7.40;2.05;;;;;;;;;;4992849;28;20023;-44
2022/07/15 03:07:30;;;;;;;3.75;1.92;;;;;;;;;;4992847;28;20056;-46
2022/07/15 03:09:55;;;;;;;2.55;1.80;;;;;;;;;;4995881;28;20097;-43
2022/07/15 03:12:21;;;;;;;3.42;1.90;;;;;;;;;;4997049;28;20105;-45
2022/07/15 03:14:46;;;;;;;1.75;1.65;;;;;;;;;;4996669;28;20100;-44
2022/07/15 03:17:12;;;;;;;6.07;1.95;;;;;;;;;;4996479;28;20030;-44
2022/07/15 03:19:38;;;;;;;2.88;1.90;;;;;;;;;;4996620;28;20030;-44
2022/07/15 03:22:03;;;;;;;6.80;1.90;;;;;;;;;;4996841;28;20061;-46
2022/07/15 03:24:29;;;;;;;2.60;1.95;;;;;;;;;;4996594;28;20026;-44
2022/07/15 03:26:54;;;;;;;2.38;2.03;;;;;;;;;;4996450;28;20026;-46
2022/07/15 03:29:20;;;;;;;6.10;2.25;;;;;;;;;;4996438;28;20019;-46
2022/07/15 03:31:46;;;;;;;4.65;2.00;;;;;;;;;;4996673;28;20022;-44
2022/07/15 03:34:11;;;;;;;3.28;1.90;;;;;;;;;;4996275;28;20027;-42
2022/07/15 03:36:38;;;;;;;4.50;1.80;;;;;;;;;;4996523;28;20121;-43
2022/07/15 03:39:05;;;;;;;2.70;1.60;;;;;;;;;;4996332;28;20033;-42
2022/07/15 03:41:30;;;;;;;4.35;2.45;;;;;;;;;;4996487;28;20080;-42
2022/07/15 03:43:56;;;;;;;4.93;2.33;;;;;;;;;;4996215;28;20026;-43
2022/07/15 03:46:21;;;;;;;9.18;1.85;;;;;;;;;;4996179;28;20050;-42
2022/07/15 03:48:46;;;;;;;5.82;1.85;;;;;;;;;;4996133;28;20026;-42
2022/07/15 03:51:12;;;;;;;5.30;1.90;;;;;;;;;;4996062;28;20053;-42
2022/07/15 03:53:38;;;;;;;4.57;2.20;;;;;;;;;;4996243;28;20033;-43
2022/07/15 03:56:03;;;;;;;5.22;3.00;;;;;;;;;;4995932;28;20042;-45
2022/07/15 03:58:29;;;;;;;14.05;2.40;;;;;;;;;;4995755;28;20491;-43
2022/07/15 04:00:54;;;;;;;10.57;2.38;;;;;;;;;;4978403;28;20033;-48
2022/07/15 04:03:19;;;;;;;5.95;1.70;;;;;;;;;;4995839;28;20471;-43
2022/07/15 04:05:45;;;;;;;11.68;2.50;;;;;;;;;;4995811;28;20031;-46
2022/07/15 04:08:10;;;;;;;3.92;1.83;;;;;;;;;;4995995;28;20026;-43
2022/07/15 04:10:36;;;;;;;1.88;1.70;;;;;;;;;;4995856;28;20533;-43
2022/07/15 04:13:02;;;;;;;9.27;2.63;;;;;;;;;;4993779;28;20049;-49
2022/07/15 04:15:28;;;;;;;12.20;2.28;;;;;;;;;;4995346;28;20030;-48
2022/07/15 04:17:54;;;;;;;10.73;3.05;;;;;;;;;;4995523;28;20027;-45
2022/07/15 04:20:20;;;;;;;23.58;2.50;;;;;;;;;;4994875;28;20031;-46
2022/07/15 04:22:48;;;;;;;10.07;2.28;;;;;;;;;;4995761;28;20476;-49
2022/07/15 04:25:17;;;;;;;8.48;2.15;;;;;;;;;;4995408;28;20109;-49
2022/07/15 04:27:43;;;;;;;14.85;2.15;;;;;;;;;;4995632;28;20031;-44
2022/07/15 04:30:10;;;;;;;9.00;2.10;;;;;;;;;;4995241;28;20030;-44
2022/07/15 04:32:36;;;;;;;3.72;1.80;;;;;;;;;;4995595;28;20018;-44
2022/07/15 04:35:01;;;;;;;6.70;1.60;;;;;;;;;;4995234;28;20022;-43
2022/07/15 04:37:27;;;;;;;6.50;1.90;;;;;;;;;;4995420;28;20072;-44
2022/07/15 04:39:54;;;;;;;7.75;1.92;;;;;;;;;;4977864;28;20026;-43
2022/07/15 04:42:20;;;;;;;4.55;1.80;;;;;;;;;;4995358;28;20033;-45
2022/07/15 04:44:47;;;;;;;8.40;1.92;;;;;;;;;;4995077;28;20030;-43
2022/07/15 04:47:12;;;;;;;4.10;1.90;;;;;;;;;;4994889;28;20455;-45
2022/07/15 04:52:22;;;;;;;6.07;1.73;;;;;;;;;;4994893;28;20092;-44
2022/07/15 04:54:48;;;;;;;3.13;1.70;;;;;;;;;;4994771;28;20026;-46
2022/07/15 04:57:13;;;;;;;4.80;1.60;;;;;;;;;;4994487;28;20099;-44
2022/07/15 04:59:39;;;;;;;3.00;1.70;;;;;;;;;;4994578;28;20129;-48
2022/07/15 05:02:05;;;;;;;5.97;1.73;;;;;;;;;;4993945;28;20022;-44
2022/07/15 05:04:30;;;;;;;4.40;2.03;;;;;;;;;;4994539;28;20022;-47
2022/07/15 05:06:56;;;;;;;16.15;3.80;;;;;;;;;;4993866;28;20029;-43
2022/07/15 05:09:21;;;;;;;8.00;2.80;;;;;;;;;;4994504;28;20022;-44
2022/07/15 05:11:47;;;;;;;8.48;3.30;;;;;;;;;;4994548;28;20034;-44
2022/07/15 05:14:12;;;;;;;4.28;1.98;;;;;;;;;;4994342;28;20080;-45
2022/07/15 05:16:38;;;;;;;3.17;1.60;;;;;;;;;;4994376;28;20031;-46
2022/07/15 05:19:03;;;;;;;3.30;1.80;;;;;;;;;;4994419;28;20124;-48
2022/07/15 05:21:29;;;;;;;3.72;1.80;;;;;;;;;;4994355;28;20099;-47
2022/07/15 05:23:55;;;;;;;2.22;1.67;;;;;;;;;;4994431;28;20034;-47
2022/07/15 05:26:21;;;;;;;1.88;1.42;;;;;;;;;;4969788;28;20399;-48
2022/07/15 05:28:46;;;;;;;4.13;1.77;;;;;;;;;;4975114;28;20030;-45
2022/07/15 05:31:12;;;;;;;3.78;1.90;;;;;;;;;;4992745;28;20109;-47
2022/07/15 05:33:38;;;;;;;2.85;1.50;;;;;;;;;;4991617;28;20077;-46
2022/07/15 05:36:04;;;;;;;4.93;1.98;;;;;;;;;;4992700;28;20042;-47
2022/07/15 05:38:30;;;;;;;4.22;1.60;;;;;;;;;;4992677;28;20022;-45
2022/07/15 05:40:56;;;;;;;7.50;1.80;;;;;;;;;;4992458;28;20395;-46
2022/07/15 05:43:21;;;;;;;5.07;1.83;;;;;;;;;;4992336;28;20026;-45
2022/07/15 05:45:47;;;;;;;5.03;2.10;;;;;;;;;;4992404;28;20049;-42
2022/07/15 05:48:12;;;;;;;8.77;1.88;;;;;;;;;;4957876;28;20037;-47
2022/07/15 05:50:38;;;;;;;12.43;2.13;;;;;;;;;;4992171;28;20026;-45
2022/07/15 05:53:03;;;;;;;8.48;1.95;;;;;;;;;;4992498;28;20054;-43
2022/07/15 05:55:29;;;;;;;8.07;2.10;;;;;;;;;;4974480;28;20621;-50
2022/07/15 05:57:54;;;;;;;6.10;2.20;;;;;;;;;;4991916;28;20113;-48
2022/07/15 06:00:20;;;;;;;6.25;2.00;;;;;;;;;;4992074;28;20034;-46
2022/07/15 06:02:45;;;;;;;4.28;2.50;;;;;;;;;;4992173;28;20038;-40
2022/07/15 06:05:11;;;;;;;3.53;2.20;;;;;;;;;;4974511;28;20497;-43
2022/07/15 06:07:37;;;;;;;3.58;1.95;;;;;;;;;;4991903;28;20026;-45
2022/07/15 06:10:08;;;;;;;8.10;2.00;;;;;;;;;;4992168;28;20501;-44
2022/07/15 06:12:33;;;;;;;7.07;1.80;;;;;;;;;;4991371;28;20027;-45
2022/07/15 06:14:59;;;;;;;2.95;2.00;;;;;;;;;;4974612;28;20110;-42
2022/07/15 06:17:25;;;;;;;8.25;2.10;;;;;;;;;;4991707;28;20042;-42
2022/07/15 06:19:50;;;;;;;2.80;1.58;;;;;;;;;;4991887;28;20069;-43
2022/07/15 06:22:16;;;;;;;6.30;2.00;;;;;;;;;;4991662;28;20038;-45
2022/07/15 06:24:41;;;;;;;4.10;1.90;;;;;;;;;;4991510;28;20026;-45
2022/07/15 06:27:07;;;;;;;8.07;2.15;;;;;;;;;;4991908;28;20058;-43
2022/07/15 06:29:32;;;;;;;7.53;2.03;;;;;;;;;;4991709;28;20368;-45
2022/07/15 06:31:58;;;;;;;8.15;2.05;;;;;;;;;;4991545;28;20038;-47
2022/07/15 06:34:24;;;;;;;12.93;2.08;;;;;;;;;;4991908;28;20068;-46
2022/07/15 06:36:50;;;;;;;6.63;1.70;;;;;;;;;;4991676;28;20061;-45
2022/07/15 06:39:16;;;;;;;4.20;1.70;;;;;;;;;;4991479;28;20076;-45
2022/07/15 06:41:42;;;;;;;16.92;1.95;;;;;;;;;;4991521;28;20026;-42
2022/07/15 06:44:07;;;;;;;4.13;1.67;;;;;;;;;;4991044;28;20080;-44
2022/07/15 06:46:33;;;;;;;5.88;1.40;;;;;;;;;;4991532;28;20026;-45
2022/07/15 06:48:59;;;;;;;11.02;1.45;;;;;;;;;;4991379;28;20482;-46
2022/07/15 06:51:25;;;;;;;3.60;1.75;;;;;;;;;;4991421;28;20022;-46
2022/07/15 06:53:50;;;;;;;6.07;1.70;;;;;;;;;;4991288;28;20032;-48
2022/07/15 06:56:15;;;;;;;3.75;1.40;;;;;;;;;;4991609;28;20125;-46
2022/07/15 06:58:41;;;;;;;3.25;1.70;;;;;;;;;;4990586;28;20050;-47
2022/07/15 07:01:07;;;;;;;3.25;1.25;;;;;;;;;;4991549;28;20030;-44
2022/07/15 07:03:32;;;;;;;3.38;1.30;;;;;;;;;;4991457;28;20360;-47
2022/07/15 07:05:58;;;;;;;2.33;1.10;;;;;;;;;;4991283;28;20026;-50
2022/07/15 07:08:23;;;;;;;2.90;1.15;;;;;;;;;;4991564;28;20027;-48
2022/07/15 07:10:49;;;;;;;1.50;1.10;;;;;;;;;;4991450;28;20566;-46
2022/07/15 07:13:15;;;;;;;1.90;1.10;;;;;;;;;;4991231;28;20030;-45
2022/07/15 07:15:40;;;;;;;3.40;1.10;;;;;;;;;;4991060;28;20085;-47
2022/07/15 07:18:06;;;;;;;5.95;1.38;;;;;;;;;;4991423;28;20042;-45
2022/07/15 07:20:31;;;;;;;1.75;1.42;;;;;;;;;;4990994;28;20501;-46
2022/07/15 07:22:57;;;;;;;4.13;1.48;;;;;;;;;;4991104;28;20090;-47
2022/07/15 07:25:23;;;;;;;3.65;1.25;;;;;;;;;;4991046;28;20026;-50
2022/07/15 07:27:49;;;;;;;3.67;1.10;;;;;;;;;;4990987;28;20038;-50
2022/07/15 07:30:15;;;;;;;1.90;1.20;;;;;;;;;;4973909;28;20035;-49
2022/07/15 07:32:41;;;;;;;1.42;1.00;;;;;;;;;;4990924;28;20031;-46
2022/07/15 07:35:07;;;;;;;2.65;1.10;;;;;;;;;;4991279;28;20037;-47
2022/07/15 07:37:38;;;;;;;6.00;1.40;;;;;;;;;;4973436;28;20030;-45
2022/07/15 07:40:04;;;;;;;2.15;1.48;;;;;;;;;;4991172;28;20026;-47
2022/07/15 07:42:30;;;;;;;2.78;1.20;;;;;;;;;;4990969;28;20532;-43
2022/07/15 07:44:56;;;;;;;1.50;1.17;;;;;;;;;;4973408;28;20034;-44
2022/07/15 07:47:21;;;;;;;1.17;1.13;;;;;;;;;;4990887;28;20034;-47
2022/07/15 07:49:47;;;;;;;3.92;1.48;;;;;;;;;;4990773;28;20038;-46
2022/07/15 07:52:15;;;;;;;3.05;1.25;;;;;;;;;;4991052;28;20101;-43
2022/07/15 07:54:41;;;;;;;4.68;1.58;;;;;;;;;;4990725;28;20537;-45
2022/07/15 07:57:08;;;;;;;4.53;1.50;;;;;;;;;;4993501;28;20093;-49
2022/07/15 07:59:33;;;;;;;8.43;1.50;;;;;;;;;;4994381;28;20393;-45
2022/07/15 08:01:59;;;;;;;3.45;1.40;;;;;;;;;;4994647;28;20110;-50
2022/07/15 08:04:24;;;;;;;2.58;1.23;;;;;;;;;;4994526;28;20026;-50
2022/07/15 08:06:51;;;;;;;6.90;1.60;;;;;;;;;;4994450;28;20022;-44
2022/07/15 08:09:17;;;;;;;5.45;1.50;;;;;;;;;;4994336;28;20053;-44
2022/07/15 08:11:42;;;;;;;5.18;1.20;;;;;;;;;;4994107;28;20031;-46
2022/07/15 08:14:08;;;;;;;5.93;1.40;;;;;;;;;;4993973;28;20042;-45
2022/07/15 08:16:34;;;;;;;5.53;1.50;;;;;;;;;;4994061;28;20077;-47
2022/07/15 08:18:59;;;;;;;1.50;1.40;;;;;;;;;;4994267;28;20332;-42
2022/07/15 08:21:25;;;;;;;2.90;1.30;;;;;;;;;;4993931;28;20030;-45
2022/07/15 08:23:50;;;;;;;5.75;1.50;;;;;;;;;;4993915;28;20106;-48
2022/07/15 08:26:23;;;;;;;1.90;1.70;;;;;;;;;;4993345;28;20093;-48
2022/07/15 08:28:49;;;;;;;2.50;1.50;;;;;;;;;;4994131;28;20403;-42
2022/07/15 08:31:16;;;;;;;2.25;1.45;;;;;;;;;;4993656;28;20038;-42
2022/07/15 08:33:42;;;;;;;8.68;1.50;;;;;;;;;;4993153;28;20042;-48
2022/07/15 08:36:07;;;;;;;3.88;1.60;;;;;;;;;;4993395;28;20693;-44
2022/07/15 08:38:33;;;;;;;5.25;1.70;;;;;;;;;;4993591;28;20391;-48
2022/07/15 08:40:58;;;;;;;2.70;1.55;;;;;;;;;;4993647;28;20399;-44
2022/07/15 08:43:24;;;;;;;3.17;2.20;;;;;;;;;;4976186;28;20114;-48
2022/07/15 08:45:51;;;;;;;7.78;1.80;;;;;;;;;;4993495;28;20386;-42
2022/07/15 08:48:17;;;;;;;4.57;1.67;;;;;;;;;;4993147;28;20034;-51
2022/07/15 08:50:43;;;;;;;5.68;1.80;;;;;;;;;;4993457;28;20110;-46
2022/07/15 08:53:09;;;;;;;5.05;1.80;;;;;;;;;;4993502;28;20121;-51
2022/07/15 08:55:34;;;;;;;3.00;1.63;;;;;;;;;;4992885;28;20505;-45
2022/07/15 08:58:00;;;;;;;3.33;1.58;;;;;;;;;;4993090;28;20055;-44
2022/07/15 09:00:30;;;;;;;3.30;1.40;;;;;;;;;;4993139;28;20033;-49
2022/07/15 09:02:57;;;;;;;3.05;1.50;;;;;;;;;;4975526;28;20173;-46
2022/07/15 09:05:33;;;;;;;5.20;1.52;;;;;;;;;;4992973;28;20045;-47
2022/07/15 09:08:11;;;;;;;2.47;1.80;;;;;;;;;;4993006;28;20052;-49
2022/07/15 09:10:58;;;;;;;2.53;1.67;;;;;;;;;;4993108;28;20022;-49
2022/07/15 09:13:40;;;;;;;3.83;1.50;;;;;;;;;;4992246;28;20668;-49
2022/07/15 09:16:08;;;;;;;2.40;1.40;;;;;;;;;;4992878;28;20042;-48
2022/07/15 09:18:43;;;;;;;1.65;1.52;;;;;;;;;;4975039;28;20379;-47
2022/07/15 09:21:19;;;;;;;1.83;1.40;;;;;;;;;;4992876;28;20199;-48
2022/07/15 09:23:45;;;;;;;7.53;1.60;;;;;;;;;;4992940;28;20475;-43
2022/07/15 09:26:25;;;;;;;3.08;1.98;;;;;;;;;;4992224;28;20042;-46
2022/07/15 09:28:50;;;;;;;1.85;1.75;;;;;;;;;;4992485;28;20038;-48
2022/07/15 09:34:13;;;;;;;16.20;2.15;;;;;;;;;;4992543;28;20065;-47
2022/07/15 09:36:42;;;;;;;7.03;1.90;;;;;;;;;;4992737;28;20073;-48
2022/07/15 09:39:08;;;;;;;3.00;1.88;;;;;;;;;;4992691;28;20471;-44
2022/07/15 09:41:40;;;;;;;3.53;1.60;;;;;;;;;;4992478;28;20036;-47
2022/07/15 09:44:10;;;;;;;7.03;1.98;;;;;;;;;;4992317;28;20106;-48
2022/07/15 09:46:50;;;;;;;3.75;1.70;;;;;;;;;;4974987;28;20030;-44
2022/07/15 09:49:24;;;;;;;5.53;1.90;;;;;;;;;;4992255;28;20121;-48
2022/07/15 09:51:59;;;;;;;2.42;1.75;;;;;;;;;;4992585;28;20037;-48
2022/07/15 09:54:30;;;;;;;3.60;2.00;;;;;;;;;;4992181;28;20478;-43
2022/07/15 09:56:57;;;;;;;2.75;1.90;;;;;;;;;;4991787;28;20034;-48
2022/07/15 09:59:24;;;;;;;4.97;1.85;;;;;;;;;;4992425;28;20197;-45
2022/07/15 10:01:50;;;;;;;1.73;1.55;;;;;;;;;;4992474;28;20031;-48
2022/07/15 10:04:19;;;;;;;6.88;1.95;;;;;;;;;;4991968;28;20105;-48
2022/07/15 10:06:47;;;;;;;6.25;1.73;;;;;;;;;;4992309;28;20034;-46
2022/07/15 10:09:13;;;;;;;8.18;1.88;;;;;;;;;;4991857;28;20034;-44
2022/07/15 10:11:43;;;;;;;3.67;1.77;;;;;;;;;;4991943;28;20117;-47
2022/07/15 10:14:15;;;;;;;;;;;;;;;;;;4992594;28;20533;-47
2022/07/15 10:16:56;;;;;;;2.00;1.90;;;;;;;;;;4991709;28;19913;-46
2022/07/15 10:19:45;;;;;;;1.80;1.70;;;;;;;;;;4989889;28;20065;-48
2022/07/15 10:22:48;;;;;;;2.50;1.60;;;;;;;;;;4992136;28;20053;-48
2022/07/15 10:25:32;;;;;;;2.72;1.90;;;;;;;;;;4974237;28;20030;-44
2022/07/15 10:28:05;;;;;;;2.13;1.92;;;;;;;;;;4991716;28;20100;-44
2022/07/15 10:30:31;;;;;;;2.33;1.60;;;;;;;;;;4991480;28;20034;-43
2022/07/15 10:33:03;;;;;;;5.32;1.52;;;;;;;;;;4973901;28;20041;-46
2022/07/15 10:35:44;;;;;;;1.80;1.70;;;;;;;;;;4991645;28;20062;-45
2022/07/15 10:38:20;;;;;;;2.15;1.60;;;;;;;;;;4974036;28;20038;-44
2022/07/15 10:41:20;;;;;;;4.22;1.70;;;;;;;;;;4991706;28;20033;-45
2022/07/15 10:43:48;;;;;;;6.60;1.95;;;;;;;;;;4991290;28;20068;-44
2022/07/15 10:46:17;;;;;;;2.47;1.70;;;;;;;;;;4991811;28;20065;-48
2022/07/15 10:48:43;;;;;;;5.13;1.90;;;;;;;;;;4991313;28;20081;-47
2022/07/15 10:51:11;;;;;;;3.85;1.90;;;;;;;;;;4991205;28;20041;-42
2022/07/15 10:56:30;;;;;;;2.20;1.80;;;;;;;;;;4991365;28;20026;-45
2022/07/15 10:59:13;;;;;;;2.30;1.85;;;;;;;;;;4974041;28;20046;-49
2022/07/15 11:01:41;;;;;;;4.63;2.30;;;;;;;;;;4991074;28;20030;-43
2022/07/15 11:04:14;;;;;;;4.10;2.20;;;;;;;;;;4973334;28;20364;-47
2022/07/15 11:07:07;;;;;;;2.60;1.98;;;;;;;;;;4991604;28;20050;-49
2022/07/15 11:10:02;;;;;;;2.45;2.05;;;;;;;;;;4990737;28;20026;-45
2022/07/15 11:12:30;;;;;;;5.05;2.10;;;;;;;;;;4974140;28;20034;-48
2022/07/15 11:15:00;;;;;;;3.67;2.17;;;;;;;;;;4991162;28;20113;-45
2022/07/15 11:17:29;;;;;;;3.97;2.10;;;;;;;;;;4991472;28;20053;-45
2022/07/15 11:20:06;;;;;;;4.35;1.80;;;;;;;;;;4991135;28;20062;-48
2022/07/15 11:22:31;;;;;;;2.97;1.80;;;;;;;;;;4991354;28;20023;-48
2022/07/15 11:24:57;;;;;;;3.50;2.10;;;;;;;;;;4991317;28;20494;-48
2022/07/15 11:27:24;;;;;;;3.33;1.80;;;;;;;;;;4991370;28;20109;-44
2022/07/15 11:29:55;;;;;;;2.85;2.05;;;;;;;;;;4991080;28;20418;-46
2022/07/15 11:32:22;;;;;;;2.72;2.20;;;;;;;;;;4994606;28;20027;-44
2022/07/15 11:37:33;;;;;;;2.08;1.67;;;;;;;;;;5177529;23;20058;-50
2022/07/15 11:44:29;;;;;;;1.83;1.63;;;;;;;;;;5014711;28;20073;-50
2022/07/15 11:45:57;;;;;;;5.55;1.60;;;;;;;;;;5014654;28;20117;-52
2022/07/15 11:48:23;;;;;;;2.92;1.90;;;;;;;;;;5014331;28;20112;-50
2022/07/15 11:50:51;;;;;;;4.60;1.88;;;;;;;;;;5014203;28;20437;-48
2022/07/15 11:53:18;;;;;;;2.08;1.85;;;;;;;;;;5014161;28;20030;-55
2022/07/15 11:55:51;;;;;;;7.32;1.95;;;;;;;;;;5012724;28;20519;-46
2022/07/15 11:58:37;;;;;;;3.08;2.00;;;;;;;;;;5014119;28;20481;-48
2022/07/15 12:01:17;;;;;;;5.28;2.33;;;;;;;;;;5013540;28;20551;-46
2022/07/15 12:03:45;;;;;;;4.75;2.50;;;;;;;;;;5014105;28;20084;-46
2022/07/15 12:06:17;;;;;;;4.32;2.70;;;;;;;;;;5014207;28;20037;-49
2022/07/15 12:08:48;;;;;;;3.78;3.45;;;;;;;;;;5013846;28;20185;-48
2022/07/15 12:11:26;;;;;;;7.32;3.95;;;;;;;;;;5014019;28;20025;-44
2022/07/15 12:14:06;;;;;;;4.63;3.42;;;;;;;;;;5014156;28;20061;-46
2022/07/15 12:16:40;;;;;;;7.53;3.05;;;;;;;;;;5013619;28;20033;-42
2022/07/15 12:19:13;;;;;;;5.35;3.25;;;;;;;;;;5013916;28;20029;-49
2022/07/15 12:21:41;;;;;;;6.95;4.10;;;;;;;;;;5013825;28;20030;-50
2022/07/15 12:24:17;;;;;;;9.02;3.80;;;;;;;;;;5013842;28;20033;-50
2022/07/15 12:26:49;;;;;;;6.38;3.70;;;;;;;;;;5013846;28;20026;-58
2022/07/15 12:29:19;;;;;;;5.22;3.53;;;;;;;;;;5013357;28;20611;-43
2022/07/15 12:31:55;;;;;;;8.70;4.63;;;;;;;;;;5013647;28;20022;-46
2022/07/15 12:34:22;;;;;;;15.05;5.10;;;;;;;;;;5013109;28;20030;-46
2022/07/15 12:36:57;;;;;;;8.85;4.53;;;;;;;;;;5013340;28;20155;-42
2022/07/15 12:39:23;;;;;;;7.28;3.90;;;;;;;;;;5013253;28;20358;-42
2022/07/15 12:42:03;;;;;;;9.52;3.63;;;;;;;;;;5013130;28;20045;-42
2022/07/15 12:44:30;;;;;;;;;;;;;;;;;;5013661;28;20520;-43
2022/07/15 12:46:57;;;;;;;8.27;3.40;;;;;;;;;;5013176;28;19921;-42
2022/07/15 12:49:45;;;;;;;19.17;3.65;;;;;;;;;;5013284;28;20026;-42
2022/07/15 12:52:38;;;;;;;10.35;3.40;;;;;;;;;;5013367;28;20030;-42
2022/07/15 12:55:25;;;;;;;4.97;3.00;;;;;;;;;;5012879;28;20045;-41
2022/07/15 12:58:01;;;;;;;5.13;3.10;;;;;;;;;;5013260;28;20072;-42
2022/07/15 13:00:29;;;;;;;4.93;3.30;;;;;;;;;;5013187;28;20025;-42
2022/07/15 13:03:05;;;;;;;6.07;3.80;;;;;;;;;;5013178;28;20058;-44
2022/07/15 13:05:39;;;;;;;3.65;3.33;;;;;;;;;;5012887;28;20030;-42
2022/07/15 13:08:06;;;;;;;5.75;3.38;;;;;;;;;;5012723;28;20544;-45
2022/07/15 13:10:32;;;;;;;7.40;3.45;;;;;;;;;;5012767;28;20034;-43
2022/07/15 13:12:57;;;;;;;6.97;3.40;;;;;;;;;;5012990;28;20033;-43
2022/07/15 13:15:23;;;;;;;4.25;2.67;;;;;;;;;;5012573;28;20030;-42
2022/07/15 13:17:49;;;;;;;4.90;2.75;;;;;;;;;;5012791;28;20034;-49
2022/07/15 13:20:14;;;;;;;5.70;2.80;;;;;;;;;;5012494;28;20037;-52
2022/07/15 13:22:40;;;;;;;3.88;2.55;;;;;;;;;;5012680;28;20096;-43
2022/07/15 13:25:06;;;;;;;9.40;2.95;;;;;;;;;;5011223;28;20094;-49
2022/07/15 13:27:32;;;;;;;5.28;2.75;;;;;;;;;;5012580;28;20435;-42
2022/07/15 13:29:59;;;;;;;5.50;2.40;;;;;;;;;;5012723;28;20026;-42
2022/07/15 13:32:25;;;;;;;3.83;2.67;;;;;;;;;;5011030;28;20030;-43
2022/07/15 13:34:50;;;;;;;11.15;2.80;;;;;;;;;;5012320;28;20029;-53
2022/07/15 13:37:16;;;;;;;4.57;2.80;;;;;;;;;;5012077;28;20057;-42
2022/07/15 13:39:41;;;;;;;3.25;2.45;;;;;;;;;;5012390;28;20423;-42
2022/07/15 13:42:07;;;;;;;3.65;2.13;;;;;;;;;;5012202;28;20077;-50
2022/07/15 13:44:32;;;;;;;8.38;2.90;;;;;;;;;;5011948;28;20033;-45
2022/07/15 13:46:58;;;;;;;3.60;2.33;;;;;;;;;;5012399;28;20038;-45
2022/07/15 13:51:22;;;;;;;3.83;2.40;;;;;;;;;;5012044;28;20097;-44
2022/07/15 13:52:09;;;;;;;9.32;2.30;;;;;;;;;;5011913;28;20912;-42
2022/07/15 13:54:35;;;;;;;7.82;2.40;;;;;;;;;;5011158;28;20120;-42
2022/07/15 13:57:00;;;;;;;5.13;2.30;;;;;;;;;;5012155;28;20026;-44
2022/07/15 13:59:27;;;;;;;6.57;2.80;;;;;;;;;;5012044;28;20172;-49
2022/07/15 14:01:54;;;;;;;4.05;2.17;;;;;;;;;;5010852;28;20049;-43
2022/07/15 14:04:20;;;;;;;12.52;2.65;;;;;;;;;;5011716;28;20542;-45
2022/07/15 14:06:47;;;;;;;5.93;2.58;;;;;;;;;;5011716;28;20736;-42
2022/07/15 14:09:12;;;;;;;3.17;2.10;;;;;;;;;;5011992;28;20109;-42
2022/07/15 14:11:38;;;;;;;4.85;2.35;;;;;;;;;;5010495;28;20117;-42
2022/07/15 14:14:03;;;;;;;6.05;2.10;;;;;;;;;;5011893;28;20029;-42
2022/07/15 14:16:29;;;;;;;3.92;2.03;;;;;;;;;;5010190;28;20397;-41
2022/07/15 14:18:54;;;;;;;3.58;1.90;;;;;;;;;;5011823;28;20056;-42
2022/07/15 14:21:21;;;;;;;5.32;2.00;;;;;;;;;;5011512;28;20028;-50
2022/07/15 14:23:48;;;;;;;2.53;2.00;;;;;;;;;;5011514;28;20084;-45
2022/07/15 14:26:15;;;;;;;8.63;1.90;;;;;;;;;;5011565;28;20332;-50
2022/07/15 14:28:43;;;;;;;7.05;2.00;;;;;;;;;;5011223;28;20025;-43
2022/07/15 14:31:12;;;;;;;9.95;2.78;;;;;;;;;;5011624;28;20430;-42
2022/07/15 14:33:39;;;;;;;2.03;1.90;;;;;;;;;;5011286;28;20021;-44
2022/07/15 14:36:06;;;;;;;4.88;2.38;;;;;;;;;;5009787;28;20058;-46
2022/07/15 14:38:32;;;;;;;7.82;2.40;;;;;;;;;;5011505;28;20381;-44
2022/07/15 14:40:58;;;;;;;9.38;2.38;;;;;;;;;;5011531;28;20041;-42
2022/07/15 14:43:24;;;;;;;3.25;2.10;;;;;;;;;;5011442;28;20029;-43
2022/07/15 14:45:49;;;;;;;8.18;2.35;;;;;;;;;;5011437;28;20359;-43
2022/07/15 14:48:15;;;;;;;3.53;2.13;;;;;;;;;;5010999;28;20053;-42
2022/07/15 14:50:40;;;;;;;4.03;2.03;;;;;;;;;;5011020;28;20030;-42
2022/07/15 14:53:06;;;;;;;6.13;2.00;;;;;;;;;;5011221;28;20029;-44
2022/07/15 14:55:32;;;;;;;8.77;2.15;;;;;;;;;;5010980;28;20022;-43
2022/07/15 14:57:57;;;;;;;3.97;2.15;;;;;;;;;;5011021;28;20548;-44
2022/07/15 15:00:23;;;;;;;4.80;2.30;;;;;;;;;;5011237;28;20097;-43
2022/07/15 15:02:48;;;;;;;4.18;2.03;;;;;;;;;;5011244;28;20711;-42